sensor_id;sensor_type;location;lat;lon;timestamp;P1;durP1;ratioP1;P2;durP2;ratioP2
9489;SDS011;4783;42.734;23.288;2023-04-24T07:14:44;15.77;;;10.35;;
9489;SDS011;4783;42.734;23.288;2023-04-24T07:17:10;19.02;;;9.23;;
9489;SDS011;4783;42.734;23.288;2023-04-24T07:59:46;11.77;;;9.13;;
9489;SDS011;4783;42.734;23.288;2023-04-24T08:02:12;12.75;;;7.60;;
9489;SDS011;4783;42.734;23.288;2023-04-24T08:27:03;10.90;;;6.95;;
9489;SDS011;4783;42.734;23.288;2023-04-24T08:29:28;9.05;;;7.47;;
9489;SDS011;4783;42.734;23.288;2023-04-24T08:31:54;16.73;;;8.02;;
9489;SDS011;4783;42.734;23.288;2023-04-24T08:48:05;8.95;;;7.78;;
9489;SDS011;4783;42.734;23.288;2023-04-24T08:50:31;13.45;;;7.25;;
9489;SDS011;4783;42.734;23.288;2023-04-24T08:52:56;12.15;;;7.53;;
9489;SDS011;4783;42.734;23.288;2023-04-24T08:55:22;13.23;;;7.88;;
9489;SDS011;4783;42.734;23.288;2023-04-24T08:57:50;13.73;;;8.65;;
9489;SDS011;4783;42.734;23.288;2023-04-24T09:00:15;11.57;;;8.35;;
9489;SDS011;4783;42.734;23.288;2023-04-24T09:02:41;13.18;;;7.45;;
9489;SDS011;4783;42.734;23.288;2023-04-24T09:05:08;12.48;;;9.48;;
9489;SDS011;4783;42.734;23.288;2023-04-24T09:07:34;10.80;;;7.00;;
9489;SDS011;4783;42.734;23.288;2023-04-24T09:10:01;9.52;;;6.80;;
9489;SDS011;4783;42.734;23.288;2023-04-24T09:12:26;10.60;;;7.38;;
9489;SDS011;4783;42.734;23.288;2023-04-24T09:14:52;13.40;;;7.47;;
9489;SDS011;4783;42.734;23.288;2023-04-24T09:17:17;14.88;;;7.03;;
9489;SDS011;4783;42.734;23.288;2023-04-24T09:19:42;10.55;;;7.15;;
9489;SDS011;4783;42.734;23.288;2023-04-24T09:22:07;10.80;;;7.03;;
9489;SDS011;4783;42.734;23.288;2023-04-24T09:24:34;11.48;;;6.43;;
9489;SDS011;4783;42.734;23.288;2023-04-24T09:27:00;12.90;;;6.60;;
9489;SDS011;4783;42.734;23.288;2023-04-24T09:29:28;12.38;;;6.07;;
9489;SDS011;4783;42.734;23.288;2023-04-24T09:31:54;14.30;;;6.35;;
9489;SDS011;4783;42.734;23.288;2023-04-24T09:34:23;10.32;;;6.22;;
9489;SDS011;4783;42.734;23.288;2023-04-24T09:36:49;9.63;;;7.82;;
9489;SDS011;4783;42.734;23.288;2023-04-24T09:39:15;17.63;;;7.20;;
9489;SDS011;4783;42.734;23.288;2023-04-24T09:44:21;9.98;;;5.97;;
9489;SDS011;4783;42.734;23.288;2023-04-24T09:46:51;8.32;;;6.40;;
9489;SDS011;4783;42.734;23.288;2023-04-24T09:49:20;13.50;;;6.95;;
9489;SDS011;4783;42.734;23.288;2023-04-24T09:51:45;17.50;;;7.90;;
9489;SDS011;4783;42.734;23.288;2023-04-24T09:54:20;11.45;;;7.18;;
9489;SDS011;4783;42.734;23.288;2023-04-24T09:56:47;9.60;;;6.32;;
9489;SDS011;4783;42.734;23.288;2023-04-24T09:59:16;11.43;;;6.03;;
9489;SDS011;4783;42.734;23.288;2023-04-24T10:01:41;10.20;;;5.95;;
9489;SDS011;4783;42.734;23.288;2023-04-24T10:04:24;10.40;;;5.97;;
9489;SDS011;4783;42.734;23.288;2023-04-24T10:06:50;9.60;;;6.20;;
9489;SDS011;4783;42.734;23.288;2023-04-24T10:09:16;10.18;;;5.88;;
9489;SDS011;4783;42.734;23.288;2023-04-24T10:11:42;11.20;;;5.60;;
9489;SDS011;4783;42.734;23.288;2023-04-24T10:14:09;13.40;;;5.57;;
9489;SDS011;4783;42.734;23.288;2023-04-24T10:16:35;11.35;;;5.85;;
9489;SDS011;4783;42.734;23.288;2023-04-24T10:19:01;9.23;;;5.30;;
9489;SDS011;4783;42.734;23.288;2023-04-24T10:21:27;9.82;;;5.53;;
9489;SDS011;4783;42.734;23.288;2023-04-24T10:23:52;8.27;;;5.82;;
9489;SDS011;4783;42.734;23.288;2023-04-24T10:26:18;13.60;;;5.60;;
9489;SDS011;4783;42.734;23.288;2023-04-24T10:28:47;9.68;;;5.38;;
9489;SDS011;4783;42.734;23.288;2023-04-24T10:31:13;7.45;;;5.65;;
9489;SDS011;4783;42.734;23.288;2023-04-24T10:33:39;11.50;;;5.43;;
9489;SDS011;4783;42.734;23.288;2023-04-24T10:36:06;11.57;;;5.18;;
9489;SDS011;4783;42.734;23.288;2023-04-24T10:38:32;6.88;;;4.82;;
9489;SDS011;4783;42.734;23.288;2023-04-24T10:41:06;9.65;;;5.28;;
9489;SDS011;4783;42.734;23.288;2023-04-24T10:43:33;9.93;;;5.93;;
9489;SDS011;4783;42.734;23.288;2023-04-24T10:46:02;12.80;;;5.45;;
9489;SDS011;4783;42.734;23.288;2023-04-24T10:48:28;10.52;;;5.55;;
9489;SDS011;4783;42.734;23.288;2023-04-24T10:50:53;9.45;;;5.18;;
9489;SDS011;4783;42.734;23.288;2023-04-24T10:53:23;7.07;;;5.15;;
9489;SDS011;4783;42.734;23.288;2023-04-24T10:55:49;8.05;;;4.47;;
9489;SDS011;4783;42.734;23.288;2023-04-24T10:58:15;13.10;;;6.00;;
9489;SDS011;4783;42.734;23.288;2023-04-24T11:00:42;9.43;;;5.40;;
9489;SDS011;4783;42.734;23.288;2023-04-24T11:03:22;9.68;;;4.95;;
9489;SDS011;4783;42.734;23.288;2023-04-24T11:05:49;10.40;;;5.05;;
9489;SDS011;4783;42.734;23.288;2023-04-24T11:08:15;10.77;;;5.63;;
9489;SDS011;4783;42.734;23.288;2023-04-24T11:10:45;8.93;;;5.20;;
9489;SDS011;4783;42.734;23.288;2023-04-24T11:30:51;5.57;;;4.72;;
9489;SDS011;4783;42.734;23.288;2023-04-24T11:33:19;9.13;;;4.70;;
9489;SDS011;4783;42.734;23.288;2023-04-24T11:35:45;6.13;;;4.53;;
9489;SDS011;4783;42.734;23.288;2023-04-24T11:38:10;10.65;;;4.72;;
9489;SDS011;4783;42.734;23.288;2023-04-24T11:40:36;14.98;;;5.55;;
9489;SDS011;4783;42.734;23.288;2023-04-24T11:43:01;9.40;;;4.93;;
9489;SDS011;4783;42.734;23.288;2023-04-24T11:45:29;7.13;;;4.57;;
9489;SDS011;4783;42.734;23.288;2023-04-24T11:47:55;5.30;;;4.80;;
9489;SDS011;4783;42.734;23.288;2023-04-24T11:50:24;8.15;;;4.75;;
9489;SDS011;4783;42.734;23.288;2023-04-24T11:52:50;6.65;;;4.30;;
9489;SDS011;4783;42.734;23.288;2023-04-24T11:57:59;5.03;;;3.80;;
9489;SDS011;4783;42.734;23.288;2023-04-24T12:00:25;8.40;;;4.60;;
9489;SDS011;4783;42.734;23.288;2023-04-24T12:02:51;7.63;;;4.03;;
9489;SDS011;4783;42.734;23.288;2023-04-24T12:05:20;5.95;;;4.13;;
9489;SDS011;4783;42.734;23.288;2023-04-24T12:07:45;6.30;;;4.60;;
9489;SDS011;4783;42.734;23.288;2023-04-24T12:10:11;7.50;;;4.65;;
9489;SDS011;4783;42.734;23.288;2023-04-24T12:12:36;5.38;;;4.32;;
9489;SDS011;4783;42.734;23.288;2023-04-24T12:15:01;5.10;;;4.47;;
9489;SDS011;4783;42.734;23.288;2023-04-24T12:17:32;4.90;;;4.20;;
9489;SDS011;4783;42.734;23.288;2023-04-24T12:19:58;6.35;;;4.60;;
9489;SDS011;4783;42.734;23.288;2023-04-24T12:22:23;5.57;;;4.47;;
9489;SDS011;4783;42.734;23.288;2023-04-24T12:24:55;10.10;;;6.43;;
9489;SDS011;4783;42.734;23.288;2023-04-24T12:27:21;8.93;;;5.03;;
9489;SDS011;4783;42.734;23.288;2023-04-24T12:29:53;12.95;;;6.47;;
9489;SDS011;4783;42.734;23.288;2023-04-24T12:32:19;18.15;;;7.35;;
9489;SDS011;4783;42.734;23.288;2023-04-24T13:00:55;5.50;;;4.60;;
9489;SDS011;4783;42.734;23.288;2023-04-24T13:03:20;10.55;;;5.40;;
9489;SDS011;4783;42.734;23.288;2023-04-24T13:05:47;7.63;;;4.70;;
9489;SDS011;4783;42.734;23.288;2023-04-24T13:08:12;7.72;;;4.72;;
9489;SDS011;4783;42.734;23.288;2023-04-24T13:10:38;6.15;;;4.40;;
9489;SDS011;4783;42.734;23.288;2023-04-24T13:13:03;8.07;;;4.60;;
9489;SDS011;4783;42.734;23.288;2023-04-24T13:15:28;6.50;;;4.65;;
9489;SDS011;4783;42.734;23.288;2023-04-24T13:17:54;5.68;;;4.35;;
9489;SDS011;4783;42.734;23.288;2023-04-24T13:20:19;6.75;;;4.00;;
9489;SDS011;4783;42.734;23.288;2023-04-24T13:22:44;5.88;;;3.83;;
9489;SDS011;4783;42.734;23.288;2023-04-24T13:25:10;4.22;;;3.83;;
9489;SDS011;4783;42.734;23.288;2023-04-24T13:27:35;6.07;;;3.90;;
9489;SDS011;4783;42.734;23.288;2023-04-24T13:30:00;5.97;;;5.18;;
9489;SDS011;4783;42.734;23.288;2023-04-24T13:32:26;6.10;;;3.38;;
9489;SDS011;4783;42.734;23.288;2023-04-24T13:34:52;7.80;;;3.58;;
9489;SDS011;4783;42.734;23.288;2023-04-24T13:37:18;4.75;;;3.33;;
9489;SDS011;4783;42.734;23.288;2023-04-24T13:39:43;5.63;;;3.90;;
9489;SDS011;4783;42.734;23.288;2023-04-24T13:42:08;5.15;;;3.63;;
9489;SDS011;4783;42.734;23.288;2023-04-24T13:44:34;5.25;;;3.72;;
9489;SDS011;4783;42.734;23.288;2023-04-24T13:46:59;6.40;;;4.45;;
9489;SDS011;4783;42.734;23.288;2023-04-24T13:49:24;6.35;;;3.80;;
9489;SDS011;4783;42.734;23.288;2023-04-24T13:51:50;5.18;;;3.40;;
9489;SDS011;4783;42.734;23.288;2023-04-24T13:54:16;6.25;;;3.78;;
9489;SDS011;4783;42.734;23.288;2023-04-24T13:56:41;4.32;;;3.47;;
9489;SDS011;4783;42.734;23.288;2023-04-24T13:59:06;5.38;;;3.20;;
9489;SDS011;4783;42.734;23.288;2023-04-24T14:01:32;10.55;;;5.72;;
9489;SDS011;4783;42.734;23.288;2023-04-24T14:03:57;5.87;;;4.70;;
9489;SDS011;4783;42.734;23.288;2023-04-24T14:06:22;6.23;;;3.40;;
9489;SDS011;4783;42.734;23.288;2023-04-24T14:08:48;10.23;;;4.72;;
9489;SDS011;4783;42.734;23.288;2023-04-24T14:11:13;7.40;;;4.45;;
9489;SDS011;4783;42.734;23.288;2023-04-24T14:13:40;6.45;;;3.55;;
9489;SDS011;4783;42.734;23.288;2023-04-24T14:16:05;7.68;;;3.30;;
9489;SDS011;4783;42.734;23.288;2023-04-24T14:18:31;5.35;;;2.60;;
9489;SDS011;4783;42.734;23.288;2023-04-24T14:20:56;11.05;;;3.22;;
9489;SDS011;4783;42.734;23.288;2023-04-24T14:23:21;6.55;;;3.35;;
9489;SDS011;4783;42.734;23.288;2023-04-24T14:25:47;6.60;;;2.80;;
9489;SDS011;4783;42.734;23.288;2023-04-24T14:28:15;8.70;;;3.25;;
9489;SDS011;4783;42.734;23.288;2023-04-24T14:30:41;5.93;;;3.42;;
9489;SDS011;4783;42.734;23.288;2023-04-24T14:33:06;8.18;;;3.83;;
